Time;durP1;ratioP1;P1;durP2;ratioP2;P2;SDS_P1;SDS_P2;PMS_P1;PMS_P2;Temp;Humidity;BMP_temperature;BMP_pressure;BME280_temperature;BME280_humidity;BME280_pressure;Samples;Min_cycle;Max_cycle;Signal;HPM_P1;HPM_P2
2024/03/24 00:01:09;;;;;;;3.17;0.82;;;;;;;;;;5072642;28;20609;-62
2024/03/24 00:03:38;;;;;;;2.03;0.80;;;;;;;;;;5073030;28;20044;-60
2024/03/24 00:06:04;;;;;;;3.20;0.93;;;;;;;;;;5072637;28;20029;-63
2024/03/24 00:08:30;;;;;;;2.53;0.93;;;;;;;;;;5072443;28;20032;-62
2024/03/24 00:10:57;;;;;;;2.72;0.80;;;;;;;;;;5072645;28;20523;-60
2024/03/24 00:13:22;;;;;;;2.05;0.80;;;;;;;;;;5072293;28;20520;-62
2024/03/24 00:15:48;;;;;;;3.85;0.88;;;;;;;;;;5071127;28;20028;-54
2024/03/24 00:18:13;;;;;;;2.20;0.73;;;;;;;;;;5072725;28;20040;-57
2024/03/24 00:20:38;;;;;;;3.28;1.10;;;;;;;;;;5072823;28;20520;-57
2024/03/24 00:23:04;;;;;;;4.43;1.00;;;;;;;;;;5072136;28;20107;-55
2024/03/24 00:25:29;;;;;;;3.10;1.02;;;;;;;;;;5072351;28;20423;-57
2024/03/24 00:27:55;;;;;;;2.25;0.80;;;;;;;;;;5072354;28;20041;-54
2024/03/24 00:30:20;;;;;;;2.00;1.10;;;;;;;;;;5072202;28;20033;-55
2024/03/24 00:32:47;;;;;;;3.10;1.00;;;;;;;;;;5072161;28;20044;-61
2024/03/24 00:35:13;;;;;;;3.72;0.75;;;;;;;;;;5072540;28;20056;-62
2024/03/24 00:37:39;;;;;;;2.83;1.00;;;;;;;;;;5069748;28;20071;-62
2024/03/24 00:40:05;;;;;;;4.70;0.90;;;;;;;;;;5071827;28;20040;-61
2024/03/24 00:42:30;;;;;;;2.83;1.00;;;;;;;;;;5072320;28;20078;-61
2024/03/24 00:44:56;;;;;;;3.97;1.07;;;;;;;;;;5071699;28;20040;-54
2024/03/24 00:47:21;;;;;;;4.35;1.20;;;;;;;;;;5071517;28;20044;-57
2024/03/24 00:49:46;;;;;;;2.70;0.88;;;;;;;;;;5071722;28;20063;-54
2024/03/24 00:52:12;;;;;;;1.90;0.85;;;;;;;;;;5071549;28;20120;-54
2024/03/24 00:54:37;;;;;;;3.28;0.82;;;;;;;;;;5071454;28;20123;-56
2024/03/24 00:57:02;;;;;;;3.28;1.02;;;;;;;;;;5071891;28;20064;-56
2024/03/24 00:59:28;;;;;;;2.60;0.93;;;;;;;;;;5070734;28;20077;-56
2024/03/24 01:01:53;;;;;;;2.30;0.82;;;;;;;;;;5069905;28;20045;-55
2024/03/24 01:04:18;;;;;;;1.85;0.80;;;;;;;;;;5071293;28;20132;-56
2024/03/24 01:06:44;;;;;;;2.88;1.00;;;;;;;;;;5071447;28;20483;-53
2024/03/24 01:09:09;;;;;;;1.85;0.82;;;;;;;;;;5071344;28;20032;-56
2024/03/24 01:11:34;;;;;;;2.78;0.90;;;;;;;;;;5071331;28;20119;-56
2024/03/24 01:13:59;;;;;;;2.63;0.93;;;;;;;;;;5071053;28;20185;-52
2024/03/24 01:16:25;;;;;;;2.63;1.00;;;;;;;;;;5071409;28;20107;-57
2024/03/24 01:18:50;;;;;;;2.63;0.80;;;;;;;;;;5071194;28;20051;-56
2024/03/24 01:21:15;;;;;;;1.70;0.73;;;;;;;;;;5071228;28;20076;-54
2024/03/24 01:23:41;;;;;;;1.80;0.85;;;;;;;;;;5069727;28;20056;-55
2024/03/24 01:26:06;;;;;;;2.40;0.82;;;;;;;;;;5071415;28;20028;-55
2024/03/24 01:28:31;;;;;;;2.72;0.98;;;;;;;;;;5070986;28;20028;-56
2024/03/24 01:30:57;;;;;;;2.28;1.02;;;;;;;;;;5070837;28;20036;-57
2024/03/24 01:33:22;;;;;;;2.25;0.90;;;;;;;;;;5071105;28;20032;-56
2024/03/24 01:35:47;;;;;;;2.15;0.65;;;;;;;;;;5070949;28;20044;-55
2024/03/24 01:38:13;;;;;;;1.85;0.80;;;;;;;;;;5071033;28;20036;-57
2024/03/24 01:40:48;;;;;;;3.70;0.90;;;;;;;;;;5071010;28;20040;-55
2024/03/24 01:43:14;;;;;;;2.88;0.90;;;;;;;;;;5067509;28;20492;-57
2024/03/24 01:45:39;;;;;;;3.65;1.13;;;;;;;;;;5070836;28;20044;-53
2024/03/24 01:48:05;;;;;;;4.45;1.08;;;;;;;;;;5053157;28;20206;-57
2024/03/24 01:50:30;;;;;;;2.58;0.90;;;;;;;;;;5052566;28;20101;-53
2024/03/24 01:52:56;;;;;;;1.92;0.90;;;;;;;;;;5070621;28;20033;-54
2024/03/24 01:55:21;;;;;;;3.90;0.90;;;;;;;;;;5070602;28;20101;-56
2024/03/24 01:57:47;;;;;;;2.55;1.02;;;;;;;;;;5070590;28;20058;-55
2024/03/24 02:00:13;;;;;;;2.83;1.13;;;;;;;;;;5070427;28;20044;-56
2024/03/24 02:02:38;;;;;;;2.28;1.00;;;;;;;;;;5070439;28;20048;-56
2024/03/24 02:05:04;;;;;;;2.10;0.85;;;;;;;;;;5070588;28;20041;-53
2024/03/24 02:07:29;;;;;;;3.80;1.05;;;;;;;;;;5069996;28;20619;-57
2024/03/24 02:09:54;;;;;;;2.75;1.10;;;;;;;;;;5070548;28;20032;-55
2024/03/24 02:12:20;;;;;;;2.80;1.00;;;;;;;;;;5070474;28;20032;-57
2024/03/24 02:14:45;;;;;;;2.88;1.00;;;;;;;;;;5069983;28;20036;-56
2024/03/24 02:17:10;;;;;;;2.08;0.90;;;;;;;;;;5070482;28;20159;-57
2024/03/24 02:19:36;;;;;;;2.55;0.90;;;;;;;;;;5070402;28;20143;-57
2024/03/24 02:22:01;;;;;;;1.85;0.73;;;;;;;;;;5070050;28;20127;-57
2024/03/24 02:24:26;;;;;;;2.13;0.90;;;;;;;;;;5068658;28;20081;-57
2024/03/24 02:26:52;;;;;;;4.57;1.00;;;;;;;;;;5070341;28;20043;-56
2024/03/24 02:29:17;;;;;;;2.17;0.90;;;;;;;;;;5069998;28;20079;-57
2024/03/24 02:31:43;;;;;;;3.53;1.17;;;;;;;;;;5070146;28;20365;-55
2024/03/24 02:34:08;;;;;;;2.72;1.05;;;;;;;;;;5070348;28;20735;-56
2024/03/24 02:36:33;;;;;;;2.38;0.98;;;;;;;;;;5070285;28;20028;-57
2024/03/24 02:38:58;;;;;;;2.20;0.90;;;;;;;;;;5069608;28;20032;-52
2024/03/24 02:41:24;;;;;;;2.50;1.05;;;;;;;;;;5069639;28;20098;-56
2024/03/24 02:43:50;;;;;;;2.40;0.90;;;;;;;;;;5070166;28;20032;-52
2024/03/24 02:46:15;;;;;;;3.70;1.00;;;;;;;;;;5069736;28;20020;-55
2024/03/24 02:48:40;;;;;;;2.58;0.95;;;;;;;;;;5070338;28;20395;-56
2024/03/24 02:51:06;;;;;;;2.05;0.90;;;;;;;;;;5069784;28;20159;-54
2024/03/24 02:53:31;;;;;;;3.03;0.98;;;;;;;;;;5068806;28;20094;-57
2024/03/24 02:55:56;;;;;;;2.75;1.10;;;;;;;;;;5069788;28;20033;-54
2024/03/24 02:58:21;;;;;;;1.73;0.80;;;;;;;;;;5070058;28;20090;-56
2024/03/24 03:00:47;;;;;;;2.40;0.90;;;;;;;;;;5069285;28;20020;-53
2024/03/24 03:03:12;;;;;;;1.10;0.70;;;;;;;;;;5069621;28;20105;-55
2024/03/24 03:05:38;;;;;;;3.05;1.08;;;;;;;;;;5069938;28;20300;-57
2024/03/24 03:08:04;;;;;;;2.33;1.00;;;;;;;;;;5069598;28;20040;-54
2024/03/24 03:10:32;;;;;;;3.50;1.10;;;;;;;;;;5069420;28;20036;-57
2024/03/24 03:12:58;;;;;;;1.83;0.90;;;;;;;;;;5052033;28;20449;-55
2024/03/24 03:15:27;;;;;;;1.38;0.75;;;;;;;;;;5073410;28;20056;-55
2024/03/24 03:17:52;;;;;;;1.90;0.80;;;;;;;;;;5073420;28;20090;-54
2024/03/24 03:20:18;;;;;;;2.33;0.90;;;;;;;;;;5073889;28;20430;-56
2024/03/24 03:22:44;;;;;;;2.15;0.85;;;;;;;;;;5073694;28;20033;-56
2024/03/24 03:25:09;;;;;;;1.80;0.80;;;;;;;;;;5073227;28;20044;-56
2024/03/24 03:27:34;;;;;;;1.55;0.95;;;;;;;;;;5073327;28;20040;-53
2024/03/24 03:30:00;;;;;;;2.15;0.95;;;;;;;;;;5073620;28;20146;-56
2024/03/24 03:32:25;;;;;;;3.38;1.10;;;;;;;;;;5072832;28;20653;-56
2024/03/24 03:34:52;;;;;;;2.10;1.00;;;;;;;;;;5073288;28;20044;-55
2024/03/24 03:37:18;;;;;;;2.05;1.08;;;;;;;;;;5073479;28;20028;-54
2024/03/24 03:39:43;;;;;;;2.38;0.80;;;;;;;;;;5073696;28;20036;-55
2024/03/24 03:42:10;;;;;;;1.75;0.73;;;;;;;;;;5072646;28;20055;-55
2024/03/24 03:44:35;;;;;;;1.40;0.77;;;;;;;;;;5073443;28;20024;-57
2024/03/24 03:47:01;;;;;;;1.65;0.90;;;;;;;;;;5073486;28;20040;-56
2024/03/24 03:49:26;;;;;;;1.55;0.80;;;;;;;;;;5072841;28;20036;-57
2024/03/24 03:51:56;;;;;;;1.33;0.70;;;;;;;;;;5072887;28;20028;-53
2024/03/24 03:54:22;;;;;;;2.08;0.98;;;;;;;;;;5073031;28;20567;-56
2024/03/24 03:56:47;;;;;;;1.77;0.90;;;;;;;;;;5072741;28;20127;-54
2024/03/24 03:59:12;;;;;;;1.77;0.80;;;;;;;;;;5072957;28;20453;-57
2024/03/24 04:01:38;;;;;;;2.03;0.85;;;;;;;;;;5073000;28;20123;-56
2024/03/24 04:04:03;;;;;;;1.60;1.00;;;;;;;;;;5073108;28;20056;-55
2024/03/24 04:06:29;;;;;;;2.05;0.90;;;;;;;;;;5072543;28;20055;-57
2024/03/24 04:08:55;;;;;;;1.85;0.90;;;;;;;;;;5073017;28;20064;-52
2024/03/24 04:11:21;;;;;;;2.10;0.93;;;;;;;;;;5071306;28;20028;-57
2024/03/24 04:13:49;;;;;;;1.80;0.82;;;;;;;;;;5072273;28;20040;-55
2024/03/24 04:16:16;;;;;;;1.65;0.90;;;;;;;;;;5072859;28;20052;-56
2024/03/24 04:18:46;;;;;;;1.80;0.80;;;;;;;;;;5072652;28;20127;-53
2024/03/24 04:21:11;;;;;;;2.05;0.95;;;;;;;;;;5071986;28;20048;-56
2024/03/24 04:23:36;;;;;;;1.65;0.80;;;;;;;;;;5072656;28;20047;-56
2024/03/24 04:26:02;;;;;;;2.45;0.93;;;;;;;;;;5072431;28;20492;-56
2024/03/24 04:28:27;;;;;;;1.85;0.80;;;;;;;;;;5072135;28;20633;-57
2024/03/24 04:30:52;;;;;;;1.45;0.80;;;;;;;;;;5072177;28;20056;-54
2024/03/24 04:33:18;;;;;;;1.85;0.82;;;;;;;;;;5072462;28;20063;-51
2024/03/24 04:35:43;;;;;;;1.95;0.80;;;;;;;;;;5072429;28;20036;-55
2024/03/24 04:38:09;;;;;;;2.08;0.77;;;;;;;;;;5072265;28;20048;-56
2024/03/24 04:40:34;;;;;;;2.72;1.25;;;;;;;;;;5072006;28;20169;-54
2024/03/24 04:43:01;;;;;;;1.65;0.85;;;;;;;;;;5066414;28;20108;-53
2024/03/24 04:45:26;;;;;;;1.67;0.80;;;;;;;;;;5071351;28;20525;-57
2024/03/24 04:47:52;;;;;;;2.72;0.98;;;;;;;;;;5072155;28;20036;-57
2024/03/24 04:50:17;;;;;;;1.73;0.80;;;;;;;;;;5071252;28;20119;-56
2024/03/24 04:52:42;;;;;;;1.42;0.80;;;;;;;;;;5071369;28;20036;-53
2024/03/24 04:55:08;;;;;;;1.35;0.80;;;;;;;;;;5071693;28;20078;-56
2024/03/24 04:57:33;;;;;;;2.78;0.80;;;;;;;;;;5071679;28;20017;-54
2024/03/24 04:59:58;;;;;;;1.48;0.77;;;;;;;;;;5071708;28;20049;-56
2024/03/24 05:02:24;;;;;;;2.90;0.80;;;;;;;;;;5071652;28;20056;-55
2024/03/24 05:04:50;;;;;;;1.60;0.70;;;;;;;;;;5071910;28;20028;-54
2024/03/24 05:07:15;;;;;;;2.40;1.00;;;;;;;;;;5070985;28;20384;-57
2024/03/24 05:09:41;;;;;;;1.77;0.80;;;;;;;;;;5071593;28;20127;-54
2024/03/24 05:12:07;;;;;;;1.90;1.05;;;;;;;;;;5071493;28;20040;-55
2024/03/24 05:14:33;;;;;;;2.50;0.90;;;;;;;;;;5071838;28;20039;-55
2024/03/24 05:16:59;;;;;;;2.42;0.95;;;;;;;;;;5071075;28;20068;-54
2024/03/24 05:19:25;;;;;;;1.77;0.80;;;;;;;;;;5068744;28;20056;-56
2024/03/24 05:21:50;;;;;;;1.80;0.82;;;;;;;;;;5071482;28;20118;-55
2024/03/24 05:24:16;;;;;;;0.98;0.63;;;;;;;;;;5071112;28;20034;-57
2024/03/24 05:26:41;;;;;;;1.98;0.90;;;;;;;;;;5071293;28;20112;-56
2024/03/24 05:29:06;;;;;;;3.45;0.77;;;;;;;;;;5070492;28;20036;-55
2024/03/24 05:31:33;;;;;;;2.00;0.80;;;;;;;;;;5070442;28;20036;-57
2024/03/24 05:33:58;;;;;;;2.30;0.77;;;;;;;;;;5071184;28;20024;-55
2024/03/24 05:36:24;;;;;;;1.65;0.82;;;;;;;;;;5070346;28;20051;-56
2024/03/24 05:38:49;;;;;;;1.80;0.70;;;;;;;;;;5071146;28;20072;-55
2024/03/24 05:41:15;;;;;;;1.88;0.80;;;;;;;;;;5070810;28;20032;-55
2024/03/24 05:43:40;;;;;;;1.33;0.70;;;;;;;;;;5070936;28;20040;-56
2024/03/24 05:46:06;;;;;;;1.90;0.80;;;;;;;;;;5071147;28;20042;-53
2024/03/24 05:48:32;;;;;;;1.77;0.88;;;;;;;;;;5070219;28;20040;-56
2024/03/24 05:51:00;;;;;;;2.05;0.80;;;;;;;;;;5071055;28;20040;-56
2024/03/24 05:53:26;;;;;;;1.55;0.70;;;;;;;;;;5070887;28;20102;-55
2024/03/24 05:55:51;;;;;;;1.70;0.70;;;;;;;;;;5070329;28;20424;-56
2024/03/24 05:58:20;;;;;;;1.85;0.90;;;;;;;;;;5070797;28;20041;-56
2024/03/24 06:00:46;;;;;;;1.60;0.80;;;;;;;;;;5070968;28;20032;-56
2024/03/24 06:03:12;;;;;;;2.30;0.80;;;;;;;;;;5070006;28;20028;-57
2024/03/24 06:05:38;;;;;;;1.45;0.63;;;;;;;;;;5070786;28;20036;-54
2024/03/24 06:08:10;;;;;;;1.20;0.70;;;;;;;;;;5070464;28;20040;-56
2024/03/24 06:10:36;;;;;;;3.05;0.90;;;;;;;;;;5070458;28;20039;-58
2024/03/24 06:13:02;;;;;;;1.20;0.60;;;;;;;;;;5070322;28;20041;-55
2024/03/24 06:15:28;;;;;;;0.95;0.60;;;;;;;;;;5067607;28;20047;-56
2024/03/24 06:17:53;;;;;;;1.63;0.90;;;;;;;;;;5070328;28;20033;-56
2024/03/24 06:20:18;;;;;;;2.33;0.90;;;;;;;;;;5070183;28;20056;-52
2024/03/24 06:22:44;;;;;;;1.83;0.80;;;;;;;;;;5070610;28;20111;-56
2024/03/24 06:25:09;;;;;;;1.20;0.60;;;;;;;;;;5069603;28;20119;-55
2024/03/24 06:27:35;;;;;;;1.90;0.80;;;;;;;;;;5069516;28;20040;-56
2024/03/24 06:30:01;;;;;;;2.17;0.77;;;;;;;;;;5069049;28;20029;-54
2024/03/24 06:32:26;;;;;;;1.73;0.80;;;;;;;;;;5070024;28;20024;-55
2024/03/24 06:34:51;;;;;;;1.27;0.60;;;;;;;;;;5069706;28;20037;-55
2024/03/24 06:37:17;;;;;;;1.10;0.60;;;;;;;;;;5069907;28;20071;-56
2024/03/24 06:39:42;;;;;;;2.28;0.77;;;;;;;;;;5070280;28;20044;-55
2024/03/24 06:42:08;;;;;;;3.30;0.88;;;;;;;;;;5061984;28;20048;-62
2024/03/24 06:44:37;;;;;;;1.52;0.75;;;;;;;;;;5068311;28;20133;-61
2024/03/24 06:47:06;;;;;;;1.77;0.68;;;;;;;;;;5069714;28;20116;-63
2024/03/24 06:49:31;;;;;;;1.10;0.68;;;;;;;;;;5067133;28;20032;-62
2024/03/24 06:51:57;;;;;;;1.23;0.70;;;;;;;;;;5068378;28;20171;-61
2024/03/24 06:54:22;;;;;;;1.13;0.65;;;;;;;;;;5069191;28;20056;-60
2024/03/24 06:56:47;;;;;;;1.63;0.73;;;;;;;;;;5070131;28;20451;-62
2024/03/24 06:59:13;;;;;;;1.33;0.73;;;;;;;;;;5069140;28;20682;-60
2024/03/24 07:01:38;;;;;;;0.88;0.52;;;;;;;;;;5069732;28;20045;-59
2024/03/24 07:04:04;;;;;;;2.17;0.90;;;;;;;;;;5069625;28;20101;-59
2024/03/24 07:06:29;;;;;;;1.88;0.70;;;;;;;;;;5069389;28;20170;-60
2024/03/24 07:08:54;;;;;;;2.17;0.98;;;;;;;;;;5069394;28;20040;-59
2024/03/24 07:11:20;;;;;;;2.17;0.75;;;;;;;;;;5069840;28;20082;-57
2024/03/24 07:13:45;;;;;;;1.77;0.60;;;;;;;;;;5069688;28;20648;-60
2024/03/24 07:16:11;;;;;;;1.95;0.70;;;;;;;;;;5068946;28;20024;-55
2024/03/24 07:18:36;;;;;;;1.77;0.77;;;;;;;;;;5070146;28;20506;-55
2024/03/24 07:21:07;;;;;;;4.05;0.80;;;;;;;;;;5069697;28;20559;-56
2024/03/24 07:23:32;;;;;;;2.50;1.00;;;;;;;;;;5069290;28;20088;-56
2024/03/24 07:25:58;;;;;;;2.30;0.60;;;;;;;;;;5070032;28;20074;-56
2024/03/24 07:28:23;;;;;;;3.73;0.90;;;;;;;;;;5070022;28;20052;-55
2024/03/24 07:30:48;;;;;;;1.85;1.33;;;;;;;;;;5069162;28;20032;-55
2024/03/24 07:33:14;;;;;;;5.20;0.90;;;;;;;;;;5069213;28;20109;-54
2024/03/24 07:35:40;;;;;;;2.28;0.80;;;;;;;;;;5069683;28;20037;-55
2024/03/24 07:38:05;;;;;;;2.13;0.68;;;;;;;;;;5068932;28;20635;-56
2024/03/24 07:40:30;;;;;;;7.45;1.00;;;;;;;;;;5069420;28;20083;-55
2024/03/24 07:42:56;;;;;;;1.17;0.70;;;;;;;;;;5069623;28;20043;-53
2024/03/24 07:45:21;;;;;;;1.87;0.63;;;;;;;;;;5069260;28;20032;-55
2024/03/24 07:47:49;;;;;;;3.15;0.68;;;;;;;;;;5069592;28;20041;-53
2024/03/24 07:50:15;;;;;;;2.67;1.25;;;;;;;;;;5068707;28;20531;-53
2024/03/24 07:52:40;;;;;;;1.48;0.70;;;;;;;;;;5069358;28;20044;-56
2024/03/24 07:55:07;;;;;;;1.75;0.70;;;;;;;;;;5069172;28;20041;-56
2024/03/24 07:57:32;;;;;;;2.13;0.80;;;;;;;;;;5069671;28;20037;-54
2024/03/24 07:59:59;;;;;;;1.27;0.50;;;;;;;;;;5070565;28;20021;-53
2024/03/24 08:02:24;;;;;;;1.67;0.63;;;;;;;;;;5072808;28;20028;-57
2024/03/24 08:04:49;;;;;;;2.10;0.70;;;;;;;;;;5072947;28;20128;-61
2024/03/24 08:07:14;;;;;;;1.58;0.60;;;;;;;;;;5073331;28;20090;-59
2024/03/24 08:09:40;;;;;;;0.63;0.40;;;;;;;;;;5071747;28;20040;-58
2024/03/24 08:12:05;;;;;;;1.98;0.68;;;;;;;;;;5072776;28;20094;-59
2024/03/24 08:14:31;;;;;;;1.98;0.80;;;;;;;;;;5072112;28;20024;-60
2024/03/24 08:16:57;;;;;;;3.25;0.70;;;;;;;;;;5071924;28;20056;-60
2024/03/24 08:19:26;;;;;;;4.32;0.90;;;;;;;;;;5071712;28;20056;-61
2024/03/24 08:21:52;;;;;;;1.77;0.60;;;;;;;;;;5070648;28;20036;-56
2024/03/24 08:24:18;;;;;;;2.50;0.57;;;;;;;;;;5070515;28;20037;-55
2024/03/24 08:26:44;;;;;;;3.70;0.70;;;;;;;;;;5069928;28;20040;-53
2024/03/24 08:29:09;;;;;;;1.92;0.90;;;;;;;;;;5070888;28;20062;-57
2024/03/24 08:31:34;;;;;;;3.53;0.70;;;;;;;;;;5070160;28;20606;-54
2024/03/24 08:34:00;;;;;;;2.67;0.80;;;;;;;;;;5070374;28;20036;-56
2024/03/24 08:36:25;;;;;;;3.42;0.73;;;;;;;;;;5071312;28;20085;-54
2024/03/24 08:38:51;;;;;;;3.03;0.80;;;;;;;;;;5070953;28;20586;-55
2024/03/24 08:41:17;;;;;;;5.35;0.80;;;;;;;;;;5070315;28;20032;-54
2024/03/24 08:43:43;;;;;;;4.32;0.90;;;;;;;;;;5071390;28;20404;-54
2024/03/24 08:46:08;;;;;;;4.90;0.75;;;;;;;;;;5071067;28;20507;-55
2024/03/24 08:48:34;;;;;;;2.50;0.70;;;;;;;;;;5070949;28;20036;-53
2024/03/24 08:50:59;;;;;;;2.10;0.80;;;;;;;;;;5069664;28;20082;-56
2024/03/24 08:53:24;;;;;;;2.35;0.50;;;;;;;;;;5071034;28;20125;-56
2024/03/24 08:55:50;;;;;;;1.27;0.60;;;;;;;;;;5070846;28;20036;-55
2024/03/24 08:58:15;;;;;;;3.17;0.90;;;;;;;;;;5070506;28;20036;-56
2024/03/24 09:00:40;;;;;;;1.52;0.60;;;;;;;;;;5070697;28;20047;-55
2024/03/24 09:03:06;;;;;;;3.58;0.80;;;;;;;;;;5070878;28;20040;-54
2024/03/24 09:05:32;;;;;;;3.22;0.60;;;;;;;;;;5070575;28;20427;-60
2024/03/24 09:07:57;;;;;;;3.08;0.85;;;;;;;;;;5070782;28;20052;-61
2024/03/24 09:10:23;;;;;;;3.45;0.70;;;;;;;;;;5070424;28;20486;-60
2024/03/24 09:12:48;;;;;;;2.03;0.70;;;;;;;;;;5069452;28;20075;-60
2024/03/24 09:15:14;;;;;;;1.38;0.52;;;;;;;;;;5070508;28;20496;-60
2024/03/24 09:17:39;;;;;;;1.27;0.47;;;;;;;;;;5070541;28;20526;-55
2024/03/24 09:20:05;;;;;;;2.53;0.80;;;;;;;;;;5030493;28;1152550;-59
2024/03/24 09:22:30;;;;;;;1.38;0.55;;;;;;;;;;5071256;28;20032;-53
2024/03/24 09:24:56;;;;;;;3.25;0.63;;;;;;;;;;5071019;28;20115;-56
2024/03/24 09:27:21;;;;;;;1.77;0.70;;;;;;;;;;5071343;28;20074;-57
2024/03/24 09:29:46;;;;;;;1.30;0.65;;;;;;;;;;5070652;28;20695;-55
2024/03/24 09:32:12;;;;;;;1.10;0.50;;;;;;;;;;5070761;28;20161;-56
2024/03/24 09:34:37;;;;;;;2.17;1.02;;;;;;;;;;5070833;28;20040;-56
2024/03/24 09:37:03;;;;;;;1.35;0.57;;;;;;;;;;5070660;28;20036;-56
2024/03/24 09:39:28;;;;;;;1.17;0.52;;;;;;;;;;5071094;28;20125;-56
2024/03/24 09:41:55;;;;;;;2.53;0.70;;;;;;;;;;5070738;28;20024;-56
2024/03/24 09:44:21;;;;;;;2.00;0.63;;;;;;;;;;5069650;28;20048;-55
2024/03/24 09:46:46;;;;;;;2.88;0.68;;;;;;;;;;5052739;28;20040;-54
2024/03/24 09:49:14;;;;;;;1.80;0.68;;;;;;;;;;5070356;28;20067;-56
2024/03/24 09:51:40;;;;;;;2.30;0.80;;;;;;;;;;5070534;28;20047;-54
2024/03/24 09:54:12;;;;;;;1.77;0.70;;;;;;;;;;5070333;28;20485;-55
2024/03/24 09:56:38;;;;;;;1.20;0.60;;;;;;;;;;5071109;28;20082;-55
2024/03/24 09:59:04;;;;;;;1.38;0.50;;;;;;;;;;5070946;28;20106;-53
2024/03/24 10:01:37;;;;;;;1.77;0.63;;;;;;;;;;5069747;28;20500;-61
2024/03/24 10:04:03;;;;;;;1.05;0.60;;;;;;;;;;5068129;28;20039;-60
2024/03/24 10:06:29;;;;;;;1.40;0.60;;;;;;;;;;5070450;28;20040;-60
2024/03/24 10:08:54;;;;;;;2.92;0.80;;;;;;;;;;5070242;28;20036;-60
2024/03/24 10:11:29;;;;;;;0.95;0.60;;;;;;;;;;5070436;28;20107;-60
2024/03/24 10:13:56;;;;;;;2.08;0.50;;;;;;;;;;5070151;28;20052;-57
2024/03/24 10:16:21;;;;;;;1.70;0.65;;;;;;;;;;5069796;28;20060;-55
2024/03/24 10:18:48;;;;;;;1.55;0.60;;;;;;;;;;5070528;28;20685;-56
2024/03/24 10:21:14;;;;;;;2.70;0.73;;;;;;;;;;5070094;28;20049;-57
2024/03/24 10:23:39;;;;;;;1.67;0.60;;;;;;;;;;5070089;28;20173;-53
2024/03/24 10:26:05;;;;;;;1.08;0.68;;;;;;;;;;5068456;28;20044;-54
2024/03/24 10:28:31;;;;;;;1.52;0.55;;;;;;;;;;5069861;28;20036;-52
2024/03/24 10:31:15;;;;;;;2.92;0.60;;;;;;;;;;5070628;28;20044;-55
2024/03/24 10:33:41;;;;;;;1.63;0.50;;;;;;;;;;5070188;28;20032;-53
2024/03/24 10:36:08;;;;;;;1.25;0.50;;;;;;;;;;5070161;28;20041;-56
2024/03/24 10:38:36;;;;;;;0.93;0.52;;;;;;;;;;5070267;28;20032;-55
2024/03/24 10:41:02;;;;;;;0.50;0.40;;;;;;;;;;5069231;28;20118;-54
2024/03/24 10:43:27;;;;;;;1.30;0.60;;;;;;;;;;5069410;28;20491;-54
2024/03/24 10:45:54;;;;;;;0.77;0.45;;;;;;;;;;5070558;28;20052;-56
2024/03/24 10:48:33;;;;;;;2.30;0.70;;;;;;;;;;5069438;28;20052;-53
2024/03/24 10:51:04;;;;;;;1.40;0.65;;;;;;;;;;5070139;28;20051;-54
2024/03/24 10:53:33;;;;;;;1.38;0.63;;;;;;;;;;5070007;28;20060;-55
2024/03/24 10:56:01;;;;;;;1.52;0.60;;;;;;;;;;5069315;28;20036;-52
2024/03/24 10:58:28;;;;;;;0.80;0.50;;;;;;;;;;5069683;28;20432;-54
2024/03/24 11:00:54;;;;;;;1.02;0.55;;;;;;;;;;5069870;28;20040;-56
2024/03/24 11:03:22;;;;;;;1.25;0.60;;;;;;;;;;5069842;28;20044;-50
2024/03/24 11:05:48;;;;;;;1.45;0.47;;;;;;;;;;5069931;28;20044;-51
2024/03/24 11:08:16;;;;;;;1.38;0.63;;;;;;;;;;5069831;28;20032;-53
2024/03/24 11:10:47;;;;;;;2.13;0.82;;;;;;;;;;5069287;28;20402;-56
2024/03/24 11:13:15;;;;;;;1.48;0.65;;;;;;;;;;5069799;28;20036;-57
2024/03/24 11:15:41;;;;;;;0.93;0.47;;;;;;;;;;5051745;28;20060;-54
2024/03/24 11:18:24;;;;;;;1.83;0.60;;;;;;;;;;5069990;28;20403;-53
2024/03/24 11:20:53;;;;;;;1.15;0.57;;;;;;;;;;5069744;28;20118;-55
2024/03/24 11:23:19;;;;;;;0.57;0.40;;;;;;;;;;5070004;28;20033;-53
2024/03/24 11:25:52;;;;;;;1.33;0.63;;;;;;;;;;5069487;28;20112;-57
2024/03/24 11:28:43;;;;;;;0.90;0.50;;;;;;;;;;5051432;28;20043;-55
2024/03/24 11:31:20;;;;;;;1.52;0.60;;;;;;;;;;5069626;28;20040;-55
2024/03/24 11:34:10;;;;;;;1.02;0.55;;;;;;;;;;5070082;28;20379;-54
2024/03/24 11:36:37;;;;;;;1.27;0.50;;;;;;;;;;5071409;28;20049;-56
2024/03/24 11:39:05;;;;;;;1.20;0.47;;;;;;;;;;5073124;28;20044;-51
2024/03/24 11:41:31;;;;;;;0.70;0.47;;;;;;;;;;5073259;28;20032;-57
2024/03/24 11:44:00;;;;;;;1.05;0.55;;;;;;;;;;5073109;28;20085;-57
2024/03/24 11:46:35;;;;;;;1.70;0.70;;;;;;;;;;5072627;28;20488;-56
2024/03/24 11:49:03;;;;;;;0.95;0.50;;;;;;;;;;5073529;28;20119;-54
2024/03/24 11:51:30;;;;;;;1.00;0.50;;;;;;;;;;5072802;28;20040;-56
2024/03/24 11:53:56;;;;;;;1.63;0.63;;;;;;;;;;5073315;28;20207;-57
2024/03/24 11:56:22;;;;;;;2.63;0.50;;;;;;;;;;5073034;28;20036;-57
2024/03/24 11:58:52;;;;;;;1.63;0.60;;;;;;;;;;5072952;28;20032;-56
2024/03/24 12:01:18;;;;;;;1.23;0.50;;;;;;;;;;5072780;28;20601;-61
2024/03/24 12:03:43;;;;;;;1.48;0.55;;;;;;;;;;5072914;28;20040;-61
2024/03/24 12:06:11;;;;;;;1.45;0.50;;;;;;;;;;5071819;28;20036;-61
2024/03/24 12:08:36;;;;;;;0.98;0.50;;;;;;;;;;5072644;28;20557;-61
2024/03/24 12:11:02;;;;;;;0.80;0.40;;;;;;;;;;5072675;28;20062;-61
2024/03/24 12:13:27;;;;;;;1.58;0.65;;;;;;;;;;5072970;28;20509;-55
2024/03/24 12:15:53;;;;;;;1.23;0.60;;;;;;;;;;5072416;28;20641;-56
2024/03/24 12:18:18;;;;;;;1.70;0.70;;;;;;;;;;5071692;28;20024;-53
2024/03/24 12:20:45;;;;;;;0.85;0.50;;;;;;;;;;5072603;28;20052;-53
2024/03/24 12:23:11;;;;;;;0.55;0.40;;;;;;;;;;5071782;28;20560;-55
2024/03/24 12:25:36;;;;;;;1.00;0.55;;;;;;;;;;5054522;28;20033;-55
2024/03/24 12:28:02;;;;;;;1.33;0.60;;;;;;;;;;5054720;28;20418;-55
2024/03/24 12:30:28;;;;;;;2.05;0.70;;;;;;;;;;5071934;28;20037;-51
2024/03/24 12:32:56;;;;;;;1.10;0.50;;;;;;;;;;5072486;28;20115;-54
2024/03/24 12:35:22;;;;;;;1.35;0.50;;;;;;;;;;5072073;28;20093;-54
2024/03/24 12:37:47;;;;;;;0.95;0.40;;;;;;;;;;5071574;28;20228;-54
2024/03/24 12:40:16;;;;;;;0.70;0.52;;;;;;;;;;5071338;28;20119;-56
2024/03/24 12:42:41;;;;;;;1.25;0.50;;;;;;;;;;5071547;28;20064;-55
2024/03/24 12:45:10;;;;;;;1.08;0.60;;;;;;;;;;5072218;28;20518;-53
2024/03/24 12:47:36;;;;;;;2.65;0.70;;;;;;;;;;5071117;28;20032;-56
2024/03/24 12:50:03;;;;;;;0.82;0.50;;;;;;;;;;5072334;28;20040;-56
2024/03/24 12:52:29;;;;;;;2.50;0.60;;;;;;;;;;5071763;28;20530;-55
2024/03/24 12:54:55;;;;;;;2.50;0.50;;;;;;;;;;5070565;28;20044;-56
2024/03/24 12:57:20;;;;;;;1.13;0.50;;;;;;;;;;5071599;28;20044;-56
2024/03/24 12:59:55;;;;;;;1.35;0.63;;;;;;;;;;5072204;28;20043;-56
2024/03/24 13:02:22;;;;;;;0.88;0.40;;;;;;;;;;5053350;28;20033;-55
2024/03/24 13:04:47;;;;;;;1.30;0.50;;;;;;;;;;5070403;28;20486;-53
2024/03/24 13:07:16;;;;;;;1.08;0.60;;;;;;;;;;5070707;28;20116;-61
2024/03/24 13:09:42;;;;;;;2.08;0.50;;;;;;;;;;5071443;28;20067;-60
2024/03/24 13:12:09;;;;;;;1.27;0.55;;;;;;;;;;5053694;28;20044;-59
2024/03/24 13:14:34;;;;;;;2.63;0.50;;;;;;;;;;5071414;28;20430;-59
2024/03/24 13:17:19;;;;;;;1.02;0.50;;;;;;;;;;5070712;28;20041;-60
2024/03/24 13:19:55;;;;;;;1.67;0.50;;;;;;;;;;5071024;28;20055;-56
2024/03/24 13:22:21;;;;;;;3.20;0.77;;;;;;;;;;5060984;28;20040;-56
2024/03/24 13:24:50;;;;;;;1.33;0.50;;;;;;;;;;5070865;28;20032;-53
2024/03/24 13:27:19;;;;;;;0.95;0.60;;;;;;;;;;5070649;28;20533;-54
2024/03/24 13:29:45;;;;;;;0.88;0.50;;;;;;;;;;5053744;28;20042;-56
2024/03/24 13:32:10;;;;;;;2.55;0.80;;;;;;;;;;5070686;28;20089;-56
2024/03/24 13:34:35;;;;;;;2.45;0.57;;;;;;;;;;5069860;28;20127;-56
2024/03/24 13:37:27;;;;;;;1.08;0.50;;;;;;;;;;5070909;28;20586;-57
2024/03/24 13:40:14;;;;;;;1.55;0.52;;;;;;;;;;5046257;28;20619;-56
2024/03/24 13:43:00;;;;;;;1.58;0.60;;;;;;;;;;5057355;28;20115;-57
2024/03/24 13:45:35;;;;;;;1.23;0.65;;;;;;;;;;5070008;28;20492;-57
2024/03/24 13:48:12;;;;;;;2.50;0.60;;;;;;;;;;5070842;28;20396;-56
2024/03/24 13:50:40;;;;;;;1.40;0.60;;;;;;;;;;5067984;28;20073;-55
2024/03/24 13:53:07;;;;;;;1.50;0.60;;;;;;;;;;5070950;28;20055;-56
2024/03/24 13:55:32;;;;;;;0.93;0.55;;;;;;;;;;5072126;28;20055;-56
2024/03/24 13:57:57;;;;;;;1.08;0.43;;;;;;;;;;5070297;28;20040;-56
2024/03/24 14:00:23;;;;;;;1.20;0.55;;;;;;;;;;5070392;28;20059;-61
2024/03/24 14:02:49;;;;;;;1.85;0.60;;;;;;;;;;5070511;28;20120;-61
2024/03/24 14:05:15;;;;;;;2.85;0.50;;;;;;;;;;5070401;28;20029;-61
2024/03/24 14:07:40;;;;;;;2.25;0.77;;;;;;;;;;5052684;28;20085;-60
2024/03/24 14:10:07;;;;;;;2.72;0.52;;;;;;;;;;5070508;28;20040;-61
2024/03/24 14:12:42;;;;;;;1.50;0.60;;;;;;;;;;5069443;28;20067;-61
2024/03/24 14:15:12;;;;;;;2.72;0.50;;;;;;;;;;5049921;28;20044;-60
2024/03/24 14:17:51;;;;;;;1.10;0.47;;;;;;;;;;5069689;28;20077;-61
2024/03/24 14:20:22;;;;;;;4.95;0.70;;;;;;;;;;5052172;28;20071;-63
2024/03/24 14:22:54;;;;;;;2.08;1.00;;;;;;;;;;5051810;28;20045;-62
2024/03/24 14:25:21;;;;;;;1.95;0.77;;;;;;;;;;5052698;28;20388;-58
2024/03/24 14:27:47;;;;;;;1.30;0.55;;;;;;;;;;5069615;28;20044;-62
2024/03/24 14:30:12;;;;;;;1.88;0.80;;;;;;;;;;5069985;28;20494;-62
2024/03/24 14:32:38;;;;;;;1.27;0.40;;;;;;;;;;5069469;28;20094;-62
2024/03/24 14:35:04;;;;;;;3.85;0.75;;;;;;;;;;5070009;28;20040;-61
2024/03/24 14:37:47;;;;;;;1.73;0.60;;;;;;;;;;5050606;28;20051;-61
2024/03/24 14:40:31;;;;;;;;;;;;;;;;;;5066493;28;20615;-53